createdAt,value
2018-07-15T00:00:09.747Z,1012.13
2018-07-15T00:01:09.720Z,1012.12
2018-07-15T00:02:09.702Z,1012.06
2018-07-15T00:03:09.661Z,1012.12
2018-07-15T00:04:09.640Z,1012.11
2018-07-15T00:05:09.638Z,1012.09
2018-07-15T00:06:09.607Z,1012.07
2018-07-15T00:07:09.591Z,1012.10
2018-07-15T00:08:09.563Z,1012.08
2018-07-15T00:09:09.524Z,1012.09
2018-07-15T00:10:09.499Z,1012.11
2018-07-15T00:11:09.484Z,1012.08
2018-07-15T00:12:09.456Z,1012.10
2018-07-15T00:13:09.427Z,1012.08
2018-07-15T00:14:09.408Z,1012.07
2018-07-15T00:15:09.381Z,1012.06
2018-07-15T00:16:10.373Z,1012.09
2018-07-15T00:17:09.359Z,1012.14
2018-07-15T00:18:09.326Z,1012.09
2018-07-15T00:19:09.286Z,1012.07
2018-07-15T00:20:09.275Z,1012.09
2018-07-15T00:21:09.242Z,1012.09
2018-07-15T00:22:09.241Z,1012.07
2018-07-15T00:23:09.196Z,1012.07
2018-07-15T00:24:09.177Z,1012.09
2018-07-15T00:25:09.145Z,1012.09
2018-07-15T00:26:09.130Z,1012.08
2018-07-15T00:27:09.106Z,1012.08
2018-07-15T00:28:09.087Z,1012.06
2018-07-15T00:29:09.085Z,1012.08
2018-07-15T00:30:09.041Z,1012.05
2018-07-15T00:31:09.005Z,1012.03
2018-07-15T00:32:09.000Z,1012.00
2018-07-15T00:33:08.959Z,1011.99
2018-07-15T00:34:08.940Z,1011.97
2018-07-15T00:35:08.912Z,1011.98
2018-07-15T00:36:08.891Z,1012.02
2018-07-15T00:37:08.869Z,1012.03
2018-07-15T00:38:08.840Z,1011.99
2018-07-15T00:39:08.822Z,1012.02
2018-07-15T00:40:08.806Z,1011.98
2018-07-15T00:41:08.781Z,1012.01
2018-07-15T00:42:08.747Z,1012.02
2018-07-15T00:43:08.722Z,1012.03
2018-07-15T00:44:08.702Z,1012.03
2018-07-15T00:45:08.682Z,1012.01
2018-07-15T00:46:08.666Z,1012.05
2018-07-15T00:47:08.634Z,1012.01
2018-07-15T00:48:08.614Z,1012.02
2018-07-15T00:49:08.597Z,1012.05
2018-07-15T00:50:08.569Z,1012.06
2018-07-15T00:51:08.541Z,1012.06
2018-07-15T00:52:08.527Z,1012.05
2018-07-15T00:53:08.492Z,1012.05
2018-07-15T00:54:08.471Z,1012.08
2018-07-15T00:55:08.489Z,1012.07
2018-07-15T00:56:08.430Z,1012.10
2018-07-15T00:57:08.398Z,1012.10
2018-07-15T00:58:08.395Z,1012.06
2018-07-15T00:59:08.353Z,1012.10
2018-07-15T01:00:08.336Z,1012.08
2018-07-15T01:01:08.310Z,1012.09
2018-07-15T01:02:08.307Z,1012.03
2018-07-15T01:03:08.268Z,1012.03
2018-07-15T01:04:08.243Z,1012.00
2018-07-15T01:05:08.217Z,1012.00
2018-07-15T01:06:08.212Z,1011.95
2018-07-15T01:07:08.169Z,1011.95
2018-07-15T01:08:08.152Z,1011.95
2018-07-15T01:09:08.123Z,1011.97
2018-07-15T01:10:08.111Z,1011.98
2018-07-15T01:11:08.078Z,1011.96
2018-07-15T01:12:08.051Z,1011.97
2018-07-15T01:13:08.033Z,1011.98
2018-07-15T01:14:08.030Z,1011.94
2018-07-15T01:15:07.996Z,1011.99
2018-07-15T01:16:07.964Z,1012.00
2018-07-15T01:17:07.944Z,1011.96
2018-07-15T01:18:07.925Z,1011.96
2018-07-15T01:19:07.890Z,1011.94
2018-07-15T01:20:07.878Z,1012.00
2018-07-15T01:21:07.840Z,1011.93
2018-07-15T01:22:07.840Z,1011.94
2018-07-15T01:23:07.810Z,1011.96
2018-07-15T01:24:07.777Z,1011.95
2018-07-15T01:25:07.760Z,1011.93
2018-07-15T01:26:07.736Z,1011.91
2018-07-15T01:27:07.708Z,1011.91
2018-07-15T01:28:07.697Z,1011.90
2018-07-15T01:29:07.654Z,1011.90
2018-07-15T01:30:07.636Z,1011.94
2018-07-15T01:31:07.611Z,1011.89
2018-07-15T01:32:07.623Z,1011.92
2018-07-15T01:33:07.565Z,1011.92
2018-07-15T01:34:07.544Z,1011.96
2018-07-15T01:35:07.534Z,1011.97
2018-07-15T01:36:07.500Z,1011.97
2018-07-15T01:37:07.466Z,1011.91
2018-07-15T01:38:07.460Z,1011.91
2018-07-15T01:39:07.424Z,1011.87
2018-07-15T01:40:07.420Z,1011.89
2018-07-15T01:41:07.373Z,1011.88
2018-07-15T01:42:07.361Z,1011.85
2018-07-15T01:43:07.329Z,1011.86
2018-07-15T01:44:07.313Z,1011.85
2018-07-15T01:45:07.280Z,1011.82
2018-07-15T01:46:07.271Z,1011.85
2018-07-15T01:47:07.239Z,1011.84
2018-07-15T01:48:07.225Z,1011.81
2018-07-15T01:49:07.189Z,1011.80
2018-07-15T01:50:07.168Z,1011.81
2018-07-15T01:51:07.149Z,1011.84
2018-07-15T01:52:07.116Z,1011.83
2018-07-15T01:53:07.090Z,1011.76
2018-07-15T01:54:07.084Z,1011.78
2018-07-15T01:55:07.050Z,1011.82
2018-07-15T01:56:07.029Z,1011.82
2018-07-15T01:57:07.005Z,1011.84
2018-07-15T01:58:06.992Z,1011.81
2018-07-15T01:59:06.953Z,1011.83
2018-07-15T02:00:06.939Z,1011.83
2018-07-15T02:01:06.905Z,1011.85
2018-07-15T02:02:06.881Z,1011.81
2018-07-15T02:03:06.851Z,1011.81
2018-07-15T02:04:06.849Z,1011.81
2018-07-15T02:05:06.805Z,1011.83
2018-07-15T02:06:06.790Z,1011.81
2018-07-15T02:07:06.770Z,1011.81
2018-07-15T02:08:06.743Z,1011.79
2018-07-15T02:09:06.722Z,1011.81
2018-07-15T02:10:06.775Z,1011.78
2018-07-15T02:11:06.675Z,1011.83
2018-07-15T02:12:06.679Z,1011.81
2018-07-15T02:13:06.640Z,1011.81
2018-07-15T02:14:06.621Z,1011.78
2018-07-15T02:15:06.583Z,1011.79
2018-07-15T02:16:06.554Z,1011.79
2018-07-15T02:17:06.528Z,1011.82
2018-07-15T02:18:06.509Z,1011.81
2018-07-15T02:19:06.489Z,1011.79
2018-07-15T02:20:07.474Z,1011.81
2018-07-15T02:21:06.440Z,1011.79
2018-07-15T02:22:06.422Z,1011.78
2018-07-15T02:23:06.389Z,1011.78
2018-07-15T02:24:06.371Z,1011.76
2018-07-15T02:25:06.340Z,1011.76
2018-07-15T02:26:06.319Z,1011.76
2018-07-15T02:27:06.286Z,1011.76
2018-07-15T02:28:07.277Z,1011.72
2018-07-15T02:29:06.240Z,1011.74
2018-07-15T02:30:06.224Z,1011.74
2018-07-15T02:31:06.196Z,1011.68
2018-07-15T02:32:06.188Z,1011.72
2018-07-15T02:33:06.149Z,1011.77
2018-07-15T02:34:06.133Z,1011.72
2018-07-15T02:35:06.092Z,1011.72
2018-07-15T02:36:06.083Z,1011.72
2018-07-15T02:37:06.060Z,1011.67
2018-07-15T02:38:06.053Z,1011.67
2018-07-15T02:39:06.009Z,1011.71
2018-07-15T02:40:05.984Z,1011.71
2018-07-15T02:41:05.959Z,1011.68
2018-07-15T02:42:05.937Z,1011.72
2018-07-15T02:43:05.912Z,1011.68
2018-07-15T02:44:05.891Z,1011.67
2018-07-15T02:45:05.870Z,1011.71
2018-07-15T02:46:05.852Z,1011.73
2018-07-15T02:47:05.827Z,1011.71
2018-07-15T02:48:05.813Z,1011.70
2018-07-15T02:49:05.797Z,1011.71
2018-07-15T02:50:05.751Z,1011.71
2018-07-15T02:51:05.725Z,1011.69
2018-07-15T02:52:05.707Z,1011.70
2018-07-15T02:53:05.672Z,1011.68
2018-07-15T02:54:05.662Z,1011.71
2018-07-15T02:55:05.622Z,1011.68
2018-07-15T02:56:05.616Z,1011.71
2018-07-15T02:57:05.582Z,1011.70
2018-07-15T02:58:05.556Z,1011.68
2018-07-15T02:59:05.535Z,1011.66
2018-07-15T03:00:05.512Z,1011.67
2018-07-15T03:01:05.485Z,1011.68
2018-07-15T03:02:05.471Z,1011.69
2018-07-15T03:03:05.428Z,1011.69
2018-07-15T03:04:05.411Z,1011.68
2018-07-15T03:05:05.391Z,1011.66
2018-07-15T03:06:05.367Z,1011.64
2018-07-15T03:07:05.343Z,1011.57
2018-07-15T03:08:05.323Z,1011.60
2018-07-15T03:09:05.300Z,1011.63
2018-07-15T03:10:05.279Z,1011.62
2018-07-15T03:11:05.248Z,1011.66
2018-07-15T03:12:05.264Z,1011.64
2018-07-15T03:13:05.198Z,1011.62
2018-07-15T03:14:06.188Z,1011.64
2018-07-15T03:15:05.167Z,1011.63
2018-07-15T03:16:05.144Z,1011.66
2018-07-15T03:17:05.110Z,1011.57
2018-07-15T03:18:05.085Z,1011.60
2018-07-15T03:19:05.047Z,1011.57
2018-07-15T03:20:05.031Z,1011.55
2018-07-15T03:21:05.005Z,1011.55
2018-07-15T03:22:04.983Z,1011.57
2018-07-15T03:23:04.960Z,1011.51
2018-07-15T03:24:04.933Z,1011.52
2018-07-15T03:25:04.906Z,1011.51
2018-07-15T03:26:04.909Z,1011.50
2018-07-15T03:27:04.872Z,1011.55
2018-07-15T03:28:04.843Z,1011.52
2018-07-15T03:29:04.822Z,1011.48
2018-07-15T03:30:05.792Z,1011.48
2018-07-15T03:31:04.760Z,1011.41
2018-07-15T03:32:04.744Z,1011.41
2018-07-15T03:33:04.709Z,1011.39
2018-07-15T03:34:04.698Z,1011.39
2018-07-15T03:35:04.693Z,1011.39
2018-07-15T03:36:04.647Z,1011.38
2018-07-15T03:37:04.617Z,1011.33
2018-07-15T03:38:04.604Z,1011.39
2018-07-15T03:39:04.575Z,1011.37
2018-07-15T03:40:04.552Z,1011.43
2018-07-15T03:41:04.523Z,1011.40
2018-07-15T03:42:04.509Z,1011.43
2018-07-15T03:43:04.468Z,1011.42
2018-07-15T03:44:04.456Z,1011.41
2018-07-15T03:45:04.434Z,1011.46
2018-07-15T03:46:04.407Z,1011.47
2018-07-15T03:47:04.376Z,1011.43
2018-07-15T03:48:04.363Z,1011.44
2018-07-15T03:49:04.332Z,1011.43
2018-07-15T03:50:04.316Z,1011.44
2018-07-15T03:51:04.278Z,1011.42
2018-07-15T03:52:04.264Z,1011.39
2018-07-15T03:53:04.231Z,1011.37
2018-07-15T03:54:04.215Z,1011.43
2018-07-15T03:55:04.198Z,1011.39
2018-07-15T03:56:04.182Z,1011.42
2018-07-15T03:57:04.135Z,1011.44
2018-07-15T03:58:04.120Z,1011.44
2018-07-15T03:59:04.096Z,1011.45
2018-07-15T04:00:04.067Z,1011.48
2018-07-15T04:01:04.041Z,1011.41
2018-07-15T04:02:04.029Z,1011.43
2018-07-15T04:03:03.991Z,1011.44
2018-07-15T04:04:03.977Z,1011.41
2018-07-15T04:05:03.962Z,1011.43
2018-07-15T04:06:03.925Z,1011.42
2018-07-15T04:07:03.903Z,1011.40
2018-07-15T04:08:03.886Z,1011.47
2018-07-15T04:09:03.853Z,1011.42
2018-07-15T04:10:03.830Z,1011.45
2018-07-15T04:11:03.808Z,1011.43
2018-07-15T04:12:03.782Z,1011.43
2018-07-15T04:13:03.756Z,1011.40
2018-07-15T04:14:03.737Z,1011.40
2018-07-15T04:15:03.707Z,1011.40
2018-07-15T04:16:03.686Z,1011.44
2018-07-15T04:17:03.660Z,1011.46
2018-07-15T04:18:03.644Z,1011.49
2018-07-15T04:19:03.613Z,1011.48
2018-07-15T04:20:03.603Z,1011.47
2018-07-15T04:21:03.562Z,1011.46
2018-07-15T04:22:03.546Z,1011.45
2018-07-15T04:23:03.520Z,1011.44
2018-07-15T04:24:03.492Z,1011.43
2018-07-15T04:25:03.475Z,1011.46
2018-07-15T04:26:03.446Z,1011.45
2018-07-15T04:27:03.416Z,1011.41
2018-07-15T04:28:03.398Z,1011.45
2018-07-15T04:29:03.365Z,1011.43
2018-07-15T04:30:03.350Z,1011.43
2018-07-15T04:31:03.325Z,1011.44
2018-07-15T04:32:03.308Z,1011.44
2018-07-15T04:33:03.275Z,1011.45
2018-07-15T04:34:03.260Z,1011.46
2018-07-15T04:35:03.228Z,1011.49
2018-07-15T04:36:04.212Z,1011.46
2018-07-15T04:37:03.179Z,1011.50
2018-07-15T04:38:03.194Z,1011.50
2018-07-15T04:39:03.125Z,1011.47
2018-07-15T04:40:03.121Z,1011.48
2018-07-15T04:41:03.076Z,1011.47
2018-07-15T04:42:03.082Z,1011.47
2018-07-15T04:43:03.039Z,1011.45
2018-07-15T04:44:03.017Z,1011.47
2018-07-15T04:45:02.990Z,1011.48
2018-07-15T04:46:02.969Z,1011.44
2018-07-15T04:47:02.937Z,1011.39
2018-07-15T04:48:02.917Z,1011.38
2018-07-15T04:49:02.885Z,1011.39
2018-07-15T04:50:02.874Z,1011.39
2018-07-15T04:51:02.841Z,1011.36
2018-07-15T04:52:02.823Z,1011.40
2018-07-15T04:53:02.793Z,1011.40
2018-07-15T04:54:02.765Z,1011.38
2018-07-15T04:55:02.759Z,1011.37
2018-07-15T04:56:02.725Z,1011.38
2018-07-15T04:57:02.694Z,1011.37
2018-07-15T04:58:02.676Z,1011.37
2018-07-15T04:59:02.657Z,1011.41
2018-07-15T05:00:02.626Z,1011.37
2018-07-15T05:01:02.601Z,1011.38
2018-07-15T05:02:02.633Z,1011.41
2018-07-15T05:03:02.547Z,1011.39
2018-07-15T05:04:02.525Z,1011.35
2018-07-15T05:05:02.502Z,1011.40
2018-07-15T05:06:02.515Z,1011.38
2018-07-15T05:07:02.457Z,1011.40
2018-07-15T05:08:02.437Z,1011.39
2018-07-15T05:09:02.409Z,1011.40
2018-07-15T05:10:02.407Z,1011.39
2018-07-15T05:11:02.360Z,1011.38
2018-07-15T05:12:02.355Z,1011.39
2018-07-15T05:13:02.315Z,1011.43
2018-07-15T05:14:02.297Z,1011.42
2018-07-15T05:15:02.269Z,1011.44
2018-07-15T05:16:02.247Z,1011.45
2018-07-15T05:17:02.217Z,1011.43
2018-07-15T05:18:02.196Z,1011.46
2018-07-15T05:19:02.163Z,1011.49
2018-07-15T05:20:02.153Z,1011.47
2018-07-15T05:21:02.112Z,1011.48
2018-07-15T05:22:02.127Z,1011.49
2018-07-15T05:23:02.077Z,1011.49
2018-07-15T05:24:02.053Z,1011.49
2018-07-15T05:25:02.077Z,1011.53
2018-07-15T05:26:02.007Z,1011.50
2018-07-15T05:27:01.971Z,1011.50
2018-07-15T05:28:01.953Z,1011.48
2018-07-15T05:29:01.932Z,1011.51
2018-07-15T05:30:01.905Z,1011.50
2018-07-15T05:31:01.913Z,1011.50
2018-07-15T05:32:01.865Z,1011.54
2018-07-15T05:33:01.825Z,1011.49
2018-07-15T05:34:01.802Z,1011.56
2018-07-15T05:35:01.828Z,1011.53
2018-07-15T05:36:01.792Z,1011.50
2018-07-15T05:37:01.733Z,1011.55
2018-07-15T05:38:01.704Z,1011.53
2018-07-15T05:39:01.717Z,1011.53
2018-07-15T05:40:01.661Z,1011.53
2018-07-15T05:41:01.642Z,1011.57
2018-07-15T05:42:01.609Z,1011.55
2018-07-15T05:43:01.585Z,1011.55
2018-07-15T05:44:01.560Z,1011.56
2018-07-15T05:45:01.532Z,1011.59
2018-07-15T05:46:01.516Z,1011.60
2018-07-15T05:47:01.494Z,1011.57
2018-07-15T05:48:01.478Z,1011.61
2018-07-15T05:49:01.439Z,1011.60
2018-07-15T05:50:01.430Z,1011.58
2018-07-15T05:51:01.390Z,1011.59
2018-07-15T05:52:01.380Z,1011.63
2018-07-15T05:53:01.345Z,1011.64
2018-07-15T05:54:01.319Z,1011.65
2018-07-15T05:55:01.288Z,1011.64
2018-07-15T05:56:01.276Z,1011.67
2018-07-15T05:57:01.242Z,1011.69
2018-07-15T05:58:01.276Z,1011.66
2018-07-15T05:59:01.204Z,1011.67
2018-07-15T06:00:01.185Z,1011.69
2018-07-15T06:01:01.148Z,1011.68
2018-07-15T06:02:01.136Z,1011.70
2018-07-15T06:03:01.104Z,1011.71
2018-07-15T06:04:01.080Z,1011.68
2018-07-15T06:05:01.056Z,1011.70
2018-07-15T06:06:01.032Z,1011.73
2018-07-15T06:07:01.005Z,1011.71
2018-07-15T06:08:01.020Z,1011.68
2018-07-15T06:09:00.963Z,1011.64
2018-07-15T06:10:01.032Z,1011.64
2018-07-15T06:11:00.909Z,1011.61
2018-07-15T06:12:00.971Z,1011.60
2018-07-15T06:13:00.859Z,1011.62
2018-07-15T06:14:00.872Z,1011.59
2018-07-15T06:15:00.806Z,1011.60
2018-07-15T06:16:00.887Z,1011.57
2018-07-15T06:17:00.822Z,1011.56
2018-07-15T06:18:00.780Z,1011.58
2018-07-15T06:19:00.725Z,1011.58
2018-07-15T06:20:00.805Z,1011.62
2018-07-15T06:21:00.664Z,1011.61
2018-07-15T06:22:00.740Z,1011.60
2018-07-15T06:23:00.631Z,1011.65
2018-07-15T06:24:00.615Z,1011.62
2018-07-15T06:25:00.628Z,1011.62
2018-07-15T06:26:00.562Z,1011.66
2018-07-15T06:27:00.666Z,1011.60
2018-07-15T06:28:00.498Z,1011.63
2018-07-15T06:29:00.569Z,1011.62
2018-07-15T06:30:00.446Z,1011.63
2018-07-15T06:31:00.668Z,1011.63
2018-07-15T06:32:00.402Z,1011.62
2018-07-15T06:33:00.500Z,1011.64
2018-07-15T06:34:00.388Z,1011.63
2018-07-15T06:35:00.390Z,1011.65
2018-07-15T06:36:00.302Z,1011.64
2018-07-15T06:37:00.399Z,1011.61
2018-07-15T06:38:00.259Z,1011.63
2018-07-15T06:39:00.304Z,1011.59
2018-07-15T06:40:00.209Z,1011.64
2018-07-15T06:41:00.243Z,1011.60
2018-07-15T06:42:00.159Z,1011.63
2018-07-15T06:43:00.236Z,1011.59
2018-07-15T06:44:00.149Z,1011.54
2018-07-15T06:45:00.130Z,1011.54
2018-07-15T06:46:00.076Z,1011.56
2018-07-15T06:47:00.170Z,1011.56
2018-07-15T06:48:00.035Z,1011.55
2018-07-15T06:49:00.104Z,1011.50
2018-07-15T06:49:59.976Z,1011.47
2018-07-15T06:50:59.940Z,1011.45
2018-07-15T06:51:59.981Z,1011.48
2018-07-15T06:53:00.279Z,1011.49
2018-07-15T06:53:59.948Z,1011.46
2018-07-15T06:54:59.898Z,1011.46
2018-07-15T06:56:00.056Z,1011.51
2018-07-15T06:56:59.854Z,1011.49
2018-07-15T06:57:59.819Z,1011.50
2018-07-15T06:58:59.753Z,1011.50
2018-07-15T06:59:59.868Z,1011.51
2018-07-15T07:00:59.709Z,1011.50
2018-07-15T07:01:59.769Z,1011.50
2018-07-15T07:02:59.685Z,1011.43
2018-07-15T07:03:59.831Z,1011.46
2018-07-15T07:04:59.616Z,1011.46
2018-07-15T07:05:59.752Z,1011.46
2018-07-15T07:06:59.575Z,1011.46
2018-07-15T07:07:59.618Z,1011.51
2018-07-15T07:08:59.547Z,1011.50
2018-07-15T07:09:59.583Z,1011.50
2018-07-15T07:10:59.461Z,1011.51
2018-07-15T07:11:59.502Z,1011.52
2018-07-15T07:12:59.455Z,1011.51
2018-07-15T07:13:59.534Z,1011.49
2018-07-15T07:14:59.385Z,1011.50
2018-07-15T07:15:59.495Z,1011.49
2018-07-15T07:16:59.354Z,1011.47
2018-07-15T07:17:59.331Z,1011.52
2018-07-15T07:18:59.277Z,1011.52
2018-07-15T07:19:59.338Z,1011.52
2018-07-15T07:20:59.256Z,1011.49
2018-07-15T07:21:59.356Z,1011.49
2018-07-15T07:22:59.190Z,1011.47
2018-07-15T07:23:59.283Z,1011.54
2018-07-15T07:24:59.147Z,1011.52
2018-07-15T07:25:59.218Z,1011.51
2018-07-15T07:26:59.116Z,1011.49
2018-07-15T07:27:59.128Z,1011.49
2018-07-15T07:28:59.034Z,1011.49
2018-07-15T07:29:59.097Z,1011.52
2018-07-15T07:30:58.990Z,1011.52
2018-07-15T07:31:59.007Z,1011.52
2018-07-15T07:32:58.950Z,1011.57
2018-07-15T07:33:59.013Z,1011.56
2018-07-15T07:34:58.909Z,1011.58
2018-07-15T07:35:58.927Z,1011.56
2018-07-15T07:37:00.054Z,1011.58
2018-07-15T07:37:58.836Z,1011.55
2018-07-15T07:38:58.811Z,1011.52
2018-07-15T07:39:58.872Z,1011.52
2018-07-15T07:40:58.771Z,1011.55
2018-07-15T07:41:58.765Z,1011.56
2018-07-15T07:42:58.721Z,1011.54
2018-07-15T07:43:58.780Z,1011.54
2018-07-15T07:44:58.683Z,1011.54
2018-07-15T07:45:58.692Z,1011.56
2018-07-15T07:46:58.681Z,1011.52
2018-07-15T07:47:58.608Z,1011.51
2018-07-15T07:48:58.561Z,1011.54
2018-07-15T07:49:58.617Z,1011.50
2018-07-15T07:50:58.514Z,1011.53
2018-07-15T07:51:58.521Z,1011.50
2018-07-15T07:52:58.474Z,1011.52
2018-07-15T07:53:58.531Z,1011.51
2018-07-15T07:54:58.415Z,1011.51
2018-07-15T07:55:58.448Z,1011.56
2018-07-15T07:56:58.368Z,1011.56
2018-07-15T07:57:58.468Z,1011.54
2018-07-15T07:58:58.319Z,1011.53
2018-07-15T07:59:58.366Z,1011.52
2018-07-15T08:00:58.288Z,1011.51
2018-07-15T08:01:58.281Z,1011.55
2018-07-15T08:02:58.244Z,1011.50
2018-07-15T08:03:58.206Z,1011.55
2018-07-15T08:04:58.184Z,1011.50
2018-07-15T08:05:58.171Z,1011.49
2018-07-15T08:06:58.217Z,1011.56
2018-07-15T08:07:58.107Z,1011.57
2018-07-15T08:08:58.081Z,1011.56
2018-07-15T08:09:58.061Z,1011.50
2018-07-15T08:10:58.025Z,1011.48
2018-07-15T08:11:58.012Z,1011.53
2018-07-15T08:12:57.980Z,1011.48
2018-07-15T08:13:57.983Z,1011.47
2018-07-15T08:14:57.932Z,1011.51
2018-07-15T08:15:57.958Z,1011.53
2018-07-15T08:16:57.881Z,1011.49
2018-07-15T08:17:58.377Z,1011.49
2018-07-15T08:18:57.832Z,1011.47
2018-07-15T08:19:57.952Z,1011.47
2018-07-15T08:20:57.787Z,1011.51
2018-07-15T08:21:57.873Z,1011.44
2018-07-15T08:22:57.742Z,1011.47
2018-07-15T08:23:57.876Z,1011.49
2018-07-15T08:24:57.699Z,1011.48
2018-07-15T08:25:57.669Z,1011.45
2018-07-15T08:26:57.645Z,1011.43
2018-07-15T08:27:57.804Z,1011.59
2018-07-15T08:28:57.605Z,1011.47
2018-07-15T08:29:57.702Z,1011.48
2018-07-15T08:30:57.548Z,1011.49
2018-07-15T08:31:57.619Z,1011.54
2018-07-15T08:32:57.503Z,1011.49
2018-07-15T08:33:57.648Z,1011.51
2018-07-15T08:34:57.504Z,1011.51
2018-07-15T08:35:57.558Z,1011.51
2018-07-15T08:36:57.399Z,1011.47
2018-07-15T08:37:57.480Z,1011.46
2018-07-15T08:38:57.357Z,1011.48
2018-07-15T08:39:57.440Z,1011.52
2018-07-15T08:40:57.310Z,1011.49
2018-07-15T08:41:57.283Z,1011.51
2018-07-15T08:42:57.321Z,1011.47
2018-07-15T08:43:57.231Z,1011.46
2018-07-15T08:44:57.224Z,1011.48
2018-07-15T08:45:57.315Z,1011.43
2018-07-15T08:46:57.182Z,1011.47
2018-07-15T08:47:57.340Z,1011.46
2018-07-15T08:48:57.125Z,1011.43
2018-07-15T08:49:57.238Z,1011.46
2018-07-15T08:50:57.069Z,1011.46
2018-07-15T08:51:57.245Z,1011.43
2018-07-15T08:52:57.045Z,1011.45
2018-07-15T08:53:57.162Z,1011.48
2018-07-15T08:54:56.977Z,1011.47
2018-07-15T08:55:57.075Z,1011.47
2018-07-15T08:56:56.937Z,1011.47
2018-07-15T08:57:57.089Z,1011.51
2018-07-15T08:58:56.886Z,1011.49
2018-07-15T08:59:56.911Z,1011.48
2018-07-15T09:00:56.827Z,1011.42
2018-07-15T09:01:56.923Z,1011.47
2018-07-15T09:02:56.793Z,1011.45
2018-07-15T09:03:56.850Z,1011.43
2018-07-15T09:04:56.739Z,1011.42
2018-07-15T09:05:56.747Z,1011.42
2018-07-15T09:06:56.698Z,1011.43
2018-07-15T09:07:56.756Z,1011.44
2018-07-15T09:08:56.643Z,1011.44
2018-07-15T09:09:57.714Z,1011.43
2018-07-15T09:10:56.614Z,1011.43
2018-07-15T09:11:56.684Z,1011.39
2018-07-15T09:12:56.557Z,1011.41
2018-07-15T09:13:56.586Z,1011.40
2018-07-15T09:14:56.532Z,1011.41
2018-07-15T09:15:56.564Z,1011.39
2018-07-15T09:16:56.446Z,1011.41
2018-07-15T09:17:56.517Z,1011.39
2018-07-15T09:18:56.408Z,1011.38
2018-07-15T09:19:56.462Z,1011.40
2018-07-15T09:20:56.370Z,1011.39
2018-07-15T09:21:56.493Z,1011.36
2018-07-15T09:22:56.300Z,1011.33
2018-07-15T09:23:56.345Z,1011.32
2018-07-15T09:24:56.274Z,1011.29
2018-07-15T09:25:56.274Z,1011.30
2018-07-15T09:26:56.216Z,1011.30
2018-07-15T09:27:56.327Z,1011.28
2018-07-15T09:28:56.196Z,1011.31
2018-07-15T09:29:56.178Z,1011.26
2018-07-15T09:30:56.121Z,1011.28
2018-07-15T09:31:56.263Z,1011.27
2018-07-15T09:32:56.081Z,1011.24
2018-07-15T09:33:56.112Z,1011.21
2018-07-15T09:34:56.031Z,1011.23
2018-07-15T09:35:56.127Z,1011.19
2018-07-15T09:36:55.982Z,1011.20
2018-07-15T09:37:55.963Z,1011.25
2018-07-15T09:38:55.938Z,1011.24
2018-07-15T09:39:55.961Z,1011.25
2018-07-15T09:40:55.893Z,1011.25
2018-07-15T09:41:55.953Z,1011.26
2018-07-15T09:42:55.841Z,1011.25
2018-07-15T09:43:55.869Z,1011.26
2018-07-15T09:44:55.792Z,1011.28
2018-07-15T09:45:55.875Z,1011.26
2018-07-15T09:46:55.789Z,1011.32
2018-07-15T09:47:55.792Z,1011.30
2018-07-15T09:48:55.728Z,1011.26
2018-07-15T09:49:55.806Z,1011.26
2018-07-15T09:50:55.658Z,1011.25
2018-07-15T09:51:55.709Z,1011.23
2018-07-15T09:52:55.637Z,1011.24
2018-07-15T09:53:55.629Z,1011.18
2018-07-15T09:54:55.603Z,1011.21
2018-07-15T09:55:55.641Z,1011.18
2018-07-15T09:56:55.517Z,1011.19
2018-07-15T09:57:55.605Z,1011.21
2018-07-15T09:58:55.482Z,1011.18
2018-07-15T09:59:55.603Z,1011.19
2018-07-15T10:00:55.430Z,1011.17
2018-07-15T10:01:55.485Z,1011.16
2018-07-15T10:02:55.392Z,1011.13
2018-07-15T10:03:55.397Z,1011.12
2018-07-15T10:04:55.354Z,1011.10
2018-07-15T10:05:55.393Z,1011.10
2018-07-15T10:06:55.287Z,1011.12
2018-07-15T10:07:55.316Z,1011.15
2018-07-15T10:08:55.247Z,1011.10
2018-07-15T10:09:56.255Z,1011.12
2018-07-15T10:10:55.205Z,1011.07
2018-07-15T10:11:55.242Z,1011.08
2018-07-15T10:12:55.155Z,1011.08
2018-07-15T10:13:55.307Z,1011.09
2018-07-15T10:14:55.101Z,1011.09
2018-07-15T10:15:55.152Z,1011.05
2018-07-15T10:16:55.064Z,1011.08
2018-07-15T10:17:55.066Z,1011.10
2018-07-15T10:18:55.099Z,1011.13
2018-07-15T10:19:56.119Z,1011.11
2018-07-15T10:20:54.961Z,1011.09
2018-07-15T10:21:54.996Z,1011.06
2018-07-15T10:22:54.953Z,1011.06
2018-07-15T10:23:55.017Z,1011.07
2018-07-15T10:24:54.941Z,1011.05
2018-07-15T10:25:54.908Z,1011.01
2018-07-15T10:26:54.824Z,1011.05
2018-07-15T10:27:54.923Z,1011.01
2018-07-15T10:28:54.777Z,1011.06
2018-07-15T10:29:54.851Z,1010.97
2018-07-15T10:30:54.735Z,1011.02
2018-07-15T10:31:54.750Z,1011.06
2018-07-15T10:32:54.694Z,1011.01
2018-07-15T10:33:55.778Z,1010.99
2018-07-15T10:34:54.641Z,1010.93
2018-07-15T10:35:54.634Z,1010.93
2018-07-15T10:36:54.655Z,1010.92
2018-07-15T10:37:54.672Z,1010.89
2018-07-15T10:38:54.569Z,1010.94
2018-07-15T10:39:54.582Z,1010.96
2018-07-15T10:40:54.508Z,1010.90
2018-07-15T10:41:55.521Z,1010.96
2018-07-15T10:42:54.462Z,1010.95
2018-07-15T10:43:54.508Z,1010.93
2018-07-15T10:44:54.416Z,1010.95
2018-07-15T10:45:55.448Z,1010.96
2018-07-15T10:46:54.375Z,1010.93
2018-07-15T10:47:54.358Z,1010.95
2018-07-15T10:48:54.361Z,1010.93
2018-07-15T10:49:54.347Z,1010.91
2018-07-15T10:50:54.302Z,1010.91
2018-07-15T10:51:56.302Z,1010.84
2018-07-15T10:52:54.255Z,1010.87
2018-07-15T10:53:54.207Z,1010.82
2018-07-15T10:54:54.190Z,1010.85
2018-07-15T10:55:54.170Z,1010.83
2018-07-15T10:56:54.141Z,1010.82
2018-07-15T10:57:54.143Z,1010.85
2018-07-15T10:58:54.094Z,1010.85
2018-07-15T10:59:54.072Z,1010.82
2018-07-15T11:00:54.094Z,1010.77
2018-07-15T11:01:55.033Z,1010.77
2018-07-15T11:02:54.005Z,1010.80
2018-07-15T11:03:55.011Z,1010.77
2018-07-15T11:04:53.970Z,1010.78
2018-07-15T11:05:54.956Z,1010.77
2018-07-15T11:06:53.912Z,1010.77
2018-07-15T11:07:53.918Z,1010.83
2018-07-15T11:08:53.867Z,1010.79
2018-07-15T11:09:53.845Z,1010.79
2018-07-15T11:10:53.830Z,1010.76
2018-07-15T11:11:53.813Z,1010.76
2018-07-15T11:12:53.778Z,1010.76
2018-07-15T11:13:53.766Z,1010.76
2018-07-15T11:14:53.739Z,1010.73
2018-07-15T11:15:53.716Z,1010.73
2018-07-15T11:16:53.686Z,1010.67
2018-07-15T11:17:53.674Z,1010.71
2018-07-15T11:18:53.652Z,1010.67
2018-07-15T11:19:53.625Z,1010.65
2018-07-15T11:20:53.605Z,1010.67
2018-07-15T11:21:53.588Z,1010.61
2018-07-15T11:22:53.555Z,1010.63
2018-07-15T11:23:58.187Z,1010.61
2018-07-15T11:24:53.535Z,1010.64
2018-07-15T11:25:53.506Z,1010.59
2018-07-15T11:26:53.486Z,1010.61
2018-07-15T11:27:53.450Z,1010.56
2018-07-15T11:28:53.418Z,1010.54
2018-07-15T11:29:53.409Z,1010.53
2018-07-15T11:30:53.429Z,1010.54
2018-07-15T11:31:53.360Z,1010.56
2018-07-15T11:32:53.324Z,1010.61
2018-07-15T11:33:55.317Z,1010.61
2018-07-15T11:34:53.293Z,1010.58
2018-07-15T11:35:58.189Z,1010.58
2018-07-15T11:36:53.249Z,1010.57
2018-07-15T11:37:53.224Z,1010.55
2018-07-15T11:38:53.250Z,1010.56
2018-07-15T11:39:54.196Z,1010.53
2018-07-15T11:40:53.164Z,1010.52
2018-07-15T11:41:53.138Z,1010.48
2018-07-15T11:42:53.105Z,1010.50
2018-07-15T11:43:53.094Z,1010.50
2018-07-15T11:44:53.058Z,1010.52
2018-07-15T11:45:53.048Z,1010.49
2018-07-15T11:46:53.029Z,1010.49
2018-07-15T11:47:53.019Z,1010.46
2018-07-15T11:48:52.987Z,1010.40
2018-07-15T11:49:53.965Z,1010.43
2018-07-15T11:50:52.947Z,1010.41
2018-07-15T11:51:53.919Z,1010.43
2018-07-15T11:52:52.882Z,1010.43
2018-07-15T11:53:52.876Z,1010.45
2018-07-15T11:54:52.850Z,1010.35
2018-07-15T11:55:52.827Z,1010.38
2018-07-15T11:56:52.797Z,1010.39
2018-07-15T11:57:52.773Z,1010.35
2018-07-15T11:58:52.759Z,1010.32
2018-07-15T11:59:52.742Z,1010.34
2018-07-15T12:00:52.712Z,1010.32
2018-07-15T12:01:52.757Z,1010.27
2018-07-15T12:02:52.693Z,1010.32
2018-07-15T12:03:52.671Z,1010.30
2018-07-15T12:04:52.637Z,1010.32